createdAt,value
2019-01-26T00:02:53.278Z,80.21
2019-01-26T00:07:55.318Z,79.76
2019-01-26T00:12:57.230Z,79.49
2019-01-26T00:17:59.157Z,79.53
2019-01-26T00:23:01.200Z,79.10
2019-01-26T00:28:03.251Z,78.89
2019-01-26T00:33:05.360Z,78.41
2019-01-26T00:38:08.394Z,78.21
2019-01-26T00:43:10.406Z,78.12
2019-01-26T00:48:12.312Z,77.73
2019-01-26T00:53:14.265Z,77.65
2019-01-26T00:58:16.390Z,77.35
2019-01-26T01:03:18.501Z,77.68
2019-01-26T01:08:20.875Z,78.49
2019-01-26T01:13:22.875Z,79.24
2019-01-26T01:18:24.825Z,80.49
2019-01-26T01:23:26.756Z,82.01
2019-01-26T01:28:28.716Z,83.17
2019-01-26T01:33:30.754Z,83.66
2019-01-26T01:38:32.770Z,84.19
2019-01-26T01:43:34.767Z,85.15
2019-01-26T01:48:37.146Z,85.39
2019-01-26T01:53:39.085Z,85.51
2019-01-26T01:58:41.154Z,85.77
2019-01-26T02:03:43.115Z,85.75
2019-01-26T02:08:45.049Z,86.00
2019-01-26T02:13:46.969Z,86.60
2019-01-26T02:18:49.002Z,86.97
2019-01-26T02:23:51.324Z,87.52
2019-01-26T02:28:53.636Z,87.92
2019-01-26T02:33:55.588Z,87.86
2019-01-26T02:38:57.517Z,87.66
2019-01-26T02:43:59.431Z,87.67
2019-01-26T02:49:01.356Z,87.89
2019-01-26T02:54:03.482Z,87.85
2019-01-26T02:59:05.413Z,87.68
2019-01-26T03:04:07.587Z,87.84
2019-01-26T03:09:09.831Z,87.82
2019-01-26T03:14:11.842Z,87.56
2019-01-26T03:19:13.894Z,87.51
2019-01-26T03:24:15.934Z,87.31
2019-01-26T03:29:17.849Z,86.50
2019-01-26T03:34:19.783Z,85.85
2019-01-26T03:39:21.709Z,84.71
2019-01-26T03:44:23.621Z,83.78
2019-01-26T03:49:25.662Z,82.77
2019-01-26T03:54:27.789Z,82.58
2019-01-26T03:59:32.110Z,82.37
2019-01-26T04:04:34.387Z,81.87
2019-01-26T04:09:42.524Z,81.94
2019-01-26T04:14:44.561Z,81.84
2019-01-26T04:19:46.494Z,82.14
2019-01-26T04:24:48.408Z,82.16
2019-01-26T04:29:50.421Z,81.59
2019-01-26T04:34:52.481Z,80.89
2019-01-26T04:39:54.498Z,80.70
2019-01-26T04:44:56.514Z,80.97
2019-01-26T04:49:58.498Z,80.98
2019-01-26T04:55:00.467Z,80.86
2019-01-26T05:00:04.719Z,81.11
2019-01-26T05:05:07.038Z,81.37
2019-01-26T05:10:15.146Z,81.64
2019-01-26T05:15:18.985Z,81.92
2019-01-26T05:20:22.621Z,81.95
2019-01-26T05:25:24.626Z,81.97
2019-01-26T05:30:27.971Z,81.97
2019-01-26T05:35:29.931Z,82.08
2019-01-26T05:40:31.945Z,82.09
2019-01-26T05:45:34.100Z,82.39
2019-01-26T05:50:36.089Z,81.95
2019-01-26T05:55:38.119Z,81.82
2019-01-26T06:00:40.059Z,82.32
2019-01-26T06:05:42.020Z,82.72
2019-01-26T06:10:43.936Z,82.79
2019-01-26T06:15:45.845Z,83.15
2019-01-26T06:20:47.756Z,83.88
2019-01-26T06:25:49.884Z,84.23
2019-01-26T06:30:51.802Z,84.64
2019-01-26T06:35:53.740Z,84.64
2019-01-26T06:40:55.856Z,85.03
2019-01-26T06:45:57.788Z,85.68
2019-01-26T06:50:59.672Z,85.64
2019-01-26T06:56:01.701Z,86.05
2019-01-26T07:01:03.770Z,86.07
2019-01-26T07:06:16.758Z,86.22
2019-01-26T07:11:20.095Z,86.52
2019-01-26T07:16:24.191Z,86.55
2019-01-26T07:21:26.213Z,86.52
2019-01-26T07:26:31.081Z,86.71
2019-01-26T07:31:34.223Z,86.36
2019-01-26T07:36:36.553Z,86.52
2019-01-26T07:41:38.657Z,86.61
2019-01-26T07:46:40.775Z,86.44
2019-01-26T07:51:42.672Z,86.38
2019-01-26T07:56:44.918Z,85.95
2019-01-26T08:01:47.074Z,85.70
2019-01-26T08:06:49.501Z,85.62
2019-01-26T08:11:51.648Z,85.41
2019-01-26T08:16:53.563Z,85.69
2019-01-26T08:21:55.726Z,85.32
2019-01-26T08:26:57.934Z,85.36
2019-01-26T08:31:59.834Z,85.23
2019-01-26T08:37:01.909Z,84.84
2019-01-26T08:42:04.212Z,84.66
2019-01-26T08:47:06.137Z,84.81
2019-01-26T08:52:08.185Z,85.36
2019-01-26T08:57:11.291Z,85.32
2019-01-26T09:02:25.493Z,85.18
2019-01-26T09:07:27.653Z,85.36
2019-01-26T09:12:30.244Z,85.13
2019-01-26T09:17:32.258Z,85.27
2019-01-26T09:22:34.178Z,85.52
2019-01-26T09:27:36.402Z,85.35
2019-01-26T09:32:38.435Z,85.58
2019-01-26T09:37:40.556Z,85.46
2019-01-26T09:42:42.719Z,85.59
2019-01-26T09:47:44.854Z,85.38
2019-01-26T09:52:46.877Z,84.82
2019-01-26T09:57:49.004Z,84.64
2019-01-26T10:02:51.132Z,84.15
2019-01-26T10:07:53.238Z,83.73
2019-01-26T10:12:55.155Z,83.48
2019-01-26T10:17:57.380Z,84.19
2019-01-26T10:22:59.379Z,84.43
2019-01-26T10:28:01.544Z,84.43
2019-01-26T10:33:04.805Z,84.08
2019-01-26T10:38:06.705Z,83.98
2019-01-26T10:43:08.750Z,83.71
2019-01-26T10:48:10.956Z,83.38
2019-01-26T10:53:13.218Z,83.38
2019-01-26T10:58:15.301Z,84.26
2019-01-26T11:03:17.524Z,84.52
2019-01-26T11:08:19.551Z,84.75
2019-01-26T11:13:21.588Z,84.17
2019-01-26T11:18:23.635Z,84.17
2019-01-26T11:23:25.665Z,84.83
2019-01-26T11:28:27.655Z,84.63
2019-01-26T11:33:29.760Z,84.43
2019-01-26T11:38:31.689Z,84.43
2019-01-26T11:43:33.633Z,84.28
2019-01-26T11:48:39.510Z,85.34
2019-01-26T11:53:41.507Z,85.34
2019-01-26T11:58:43.407Z,85.22
2019-01-26T12:03:49.382Z,85.19
2019-01-26T12:08:51.723Z,85.17
2019-01-26T12:13:53.662Z,85.07
2019-01-26T12:18:55.736Z,85.09
2019-01-26T12:23:57.640Z,85.43
2019-01-26T12:28:59.645Z,85.23
2019-01-26T12:34:01.583Z,85.51
2019-01-26T12:39:08.105Z,85.79
2019-01-26T12:44:10.132Z,85.65
2019-01-26T12:49:12.250Z,85.80
2019-01-26T12:54:14.319Z,86.05
2019-01-26T12:59:16.513Z,85.98
2019-01-26T13:04:19.035Z,85.74
2019-01-26T13:09:21.288Z,86.09
2019-01-26T13:14:23.327Z,86.26
2019-01-26T13:19:25.334Z,86.31
2019-01-26T13:24:27.371Z,86.59
2019-01-26T13:29:29.363Z,86.59
2019-01-26T13:34:31.432Z,86.52
2019-01-26T13:39:33.382Z,86.30
2019-01-26T13:44:36.547Z,86.14
2019-01-26T13:49:43.989Z,86.62
2019-01-26T13:54:42.418Z,86.60
2019-01-26T13:59:44.319Z,86.63
2019-01-26T14:04:46.431Z,86.72
2019-01-26T14:09:48.339Z,86.95
2019-01-26T14:14:50.694Z,87.20
2019-01-26T14:19:52.657Z,87.62
2019-01-26T14:24:54.576Z,87.50
2019-01-26T14:29:56.471Z,87.76
2019-01-26T14:34:58.420Z,87.67
2019-01-26T14:40:00.747Z,87.73
2019-01-26T14:45:03.988Z,87.69
2019-01-26T14:50:07.451Z,87.84
2019-01-26T14:55:12.424Z,87.48
2019-01-26T15:00:17.897Z,87.55
2019-01-26T15:05:21.241Z,87.31
2019-01-26T15:10:23.434Z,87.37
2019-01-26T15:15:25.491Z,87.26
2019-01-26T15:20:30.173Z,87.63
2019-01-26T15:25:32.389Z,87.53
2019-01-26T15:30:36.537Z,87.84
2019-01-26T15:35:38.570Z,87.70
2019-01-26T15:40:40.685Z,87.63
2019-01-26T15:45:44.826Z,87.58
2019-01-26T15:50:46.781Z,87.56
2019-01-26T15:55:49.190Z,87.89
2019-01-26T16:00:51.250Z,87.73
2019-01-26T16:05:53.283Z,87.78
2019-01-26T16:10:55.290Z,87.83
2019-01-26T16:15:57.225Z,87.82
2019-01-26T16:20:59.129Z,87.64
2019-01-26T16:26:01.191Z,87.71
2019-01-26T16:31:03.372Z,87.64
2019-01-26T16:36:05.420Z,87.73
2019-01-26T16:41:07.464Z,87.49
2019-01-26T16:46:09.517Z,87.43
2019-01-26T16:51:11.529Z,87.36
2019-01-26T16:56:13.642Z,87.60
2019-01-26T17:01:15.644Z,87.64
2019-01-26T17:06:17.572Z,87.73
2019-01-26T17:11:19.497Z,87.95
2019-01-26T17:16:21.766Z,88.08
2019-01-26T17:21:23.857Z,88.18
2019-01-26T17:26:25.804Z,88.19
2019-01-26T17:31:27.771Z,88.28
2019-01-26T17:36:31.724Z,87.74
2019-01-26T17:41:33.663Z,87.67
2019-01-26T17:46:35.725Z,87.52
2019-01-26T17:51:37.926Z,86.29
2019-01-26T17:56:39.866Z,86.02
2019-01-26T18:01:41.776Z,86.01
2019-01-26T18:06:44.198Z,85.76
2019-01-26T18:11:46.163Z,85.59
2019-01-26T18:16:48.047Z,85.37
2019-01-26T18:21:50.577Z,84.77
2019-01-26T18:26:52.617Z,84.67
2019-01-26T18:31:54.622Z,84.39
2019-01-26T18:36:56.644Z,84.28
2019-01-26T18:41:58.949Z,84.12
2019-01-26T18:47:00.941Z,84.06
2019-01-26T18:52:03.247Z,83.92
2019-01-26T18:57:05.385Z,83.56
2019-01-26T19:02:07.481Z,83.64
2019-01-26T19:07:09.399Z,83.90
2019-01-26T19:12:11.418Z,83.39
2019-01-26T19:17:13.813Z,83.49
2019-01-26T19:22:16.140Z,82.93
2019-01-26T19:27:18.322Z,82.66
2019-01-26T19:32:20.355Z,82.57
2019-01-26T19:37:22.257Z,82.06
2019-01-26T19:42:24.356Z,82.10
2019-01-26T19:47:26.478Z,82.46
2019-01-26T19:52:28.377Z,81.83
2019-01-26T19:57:30.687Z,81.33
2019-01-26T20:02:32.751Z,81.16
2019-01-26T20:07:34.921Z,79.98
2019-01-26T20:12:36.965Z,80.18
2019-01-26T20:17:39.168Z,79.98
2019-01-26T20:22:41.100Z,79.71
2019-01-26T20:27:43.219Z,80.39
2019-01-26T20:32:45.228Z,80.30
2019-01-26T20:37:47.584Z,79.65
2019-01-26T20:42:49.744Z,79.53
2019-01-26T20:47:51.768Z,79.34
2019-01-26T20:52:53.798Z,79.25
2019-01-26T20:57:55.749Z,79.97
2019-01-26T21:02:57.886Z,79.84
2019-01-26T21:07:59.832Z,79.75
2019-01-26T21:13:01.788Z,79.51
2019-01-26T21:18:03.857Z,79.70
2019-01-26T21:23:06.084Z,79.78
2019-01-26T21:28:08.217Z,80.29
2019-01-26T21:33:10.111Z,80.65
2019-01-26T21:38:12.106Z,80.28
2019-01-26T21:43:14.083Z,79.50
2019-01-26T21:48:16.158Z,78.93
2019-01-26T21:53:18.163Z,78.33
2019-01-26T21:58:20.098Z,78.53
2019-01-26T22:03:22.012Z,78.78
2019-01-26T22:08:24.040Z,78.86
2019-01-26T22:13:26.191Z,78.87
2019-01-26T22:18:28.269Z,78.97
2019-01-26T22:23:30.272Z,79.87
2019-01-26T22:28:32.297Z,80.34
2019-01-26T22:33:34.193Z,80.28
2019-01-26T22:38:36.132Z,80.06
2019-01-26T22:43:38.041Z,80.02
2019-01-26T22:48:40.178Z,79.83
2019-01-26T22:53:42.305Z,78.01
2019-01-26T22:58:44.223Z,77.50
2019-01-26T23:04:35.149Z,77.00
2019-01-26T23:09:59.377Z,77.30
2019-01-26T23:15:21.837Z,77.28
2019-01-26T23:20:51.949Z,77.26
2019-01-26T23:26:06.155Z,77.43
2019-01-26T23:31:19.266Z,78.23
2019-01-26T23:36:21.503Z,78.53
2019-01-26T23:41:23.585Z,79.05
2019-01-26T23:46:25.618Z,78.96
2019-01-26T23:51:27.637Z,78.62
2019-01-26T23:56:29.548Z,78.73
